Ada, South Dakota
Current Conditions -  °F | °C
As of 8:53 AM on Thursday 23 Oct 2014 (Local Time) from KHEI Reporting Station
Clear Clear  
Wind Chill: 44°   Ceiling: Unl
Heat Index: 44°   Visibility: 10mi
Dew Point: 32°   Wind: 0mph
Humidity: 63%   Direction: NA
Pressure: 29.94"   Gusts: NA
Location:  45.5161°N, 102.519°W
Report Text: KHEI 231453Z AUTO 00000KT 10SM CLR 07/00 A2994 RMK AO2 SLP151 T00670000 53003
Loading
Personal Weather Stations






























Interactive Weather Map New forecast layout! Learn more

10-Day Weather Forecast

Advertisements
Track Severe Weather on mobile